Weather at Cologne Bonn Airport

Public forecast

Using degrees Celsius for public forecast. Weather courtesy of forecast.io.

Current aviation weather report (METAR) for Cologne Bonn Airport

Retrieved 2020/09/30 20:20 UTC (53 seconds ago):

EDDK 302020Z 10006KT 070V130 CAVOK 14/11 Q1011 NOSIG

Aviation forecast (TAF) for Cologne Bonn Airport

Retrieved 2020/09/30 18:27 UTC (2 hours ago):

TAF EDDK 301700Z 3018/0124 12006KT 9999 FEW010 SCT025 BECMG 0107/0110 17011KT TEMPO 0110/0117 RA BECMG 0116/0118 16006KT